createdAt,value
2018-02-01T00:00:19.590Z,89.72
2018-02-01T00:02:47.255Z,89.85
2018-02-01T00:05:15.104Z,89.97
2018-02-01T00:07:42.802Z,90.05
2018-02-01T00:10:10.775Z,89.89
2018-02-01T00:12:38.473Z,90.09
2018-02-01T00:15:06.197Z,90.46
2018-02-01T00:17:33.933Z,90.55
2018-02-01T00:20:01.871Z,90.58
2018-02-01T00:22:29.488Z,90.64
2018-02-01T00:24:57.173Z,90.67
2018-02-01T00:27:24.923Z,90.65
2018-02-01T00:29:53.045Z,90.83
2018-02-01T00:32:20.737Z,91.15
2018-02-01T00:34:48.443Z,91.38
2018-02-01T00:37:16.176Z,91.47
2018-02-01T00:39:43.914Z,91.58
2018-02-01T00:42:11.729Z,91.58
2018-02-01T00:44:39.608Z,91.61
2018-02-01T00:47:07.309Z,91.60
2018-02-01T00:49:34.978Z,91.51
2018-02-01T00:52:02.927Z,91.52
2018-02-01T00:54:30.614Z,91.69
2018-02-01T00:56:58.352Z,91.79
2018-02-01T00:59:26.051Z,91.95
2018-02-01T01:01:53.735Z,92.15
2018-02-01T01:04:21.721Z,92.13
2018-02-01T01:06:49.418Z,92.30
2018-02-01T01:09:17.052Z,92.52
2018-02-01T01:11:44.821Z,92.61
2018-02-01T01:14:12.805Z,92.45
2018-02-01T01:16:40.468Z,92.45
2018-02-01T01:19:08.451Z,92.42
2018-02-01T01:21:36.105Z,92.54
2018-02-01T01:24:03.783Z,92.57
2018-02-01T01:26:31.475Z,92.57
2018-02-01T01:28:59.092Z,92.58
2018-02-01T01:31:26.753Z,92.67
2018-02-01T01:33:54.486Z,92.75
2018-02-01T01:36:22.113Z,92.87
2018-02-01T01:38:49.737Z,92.88
2018-02-01T01:41:17.389Z,92.95
2018-02-01T01:43:45.023Z,92.92
2018-02-01T01:46:12.717Z,93.03
2018-02-01T01:48:40.392Z,93.06
2018-02-01T01:51:08.015Z,93.00
2018-02-01T01:53:35.680Z,92.83
2018-02-01T01:56:03.298Z,92.88
2018-02-01T01:58:30.962Z,92.64
2018-02-01T02:00:58.609Z,92.73
2018-02-01T02:03:26.310Z,92.60
2018-02-01T02:05:53.929Z,92.58
2018-02-01T02:08:21.561Z,92.62
2018-02-01T02:10:49.223Z,92.57
2018-02-01T02:13:16.879Z,92.55
2018-02-01T02:15:44.830Z,92.55
2018-02-01T02:18:12.594Z,92.44
2018-02-01T02:20:40.229Z,92.38
2018-02-01T02:23:08.274Z,92.31
2018-02-01T02:25:36.242Z,92.28
2018-02-01T02:28:03.902Z,92.24
2018-02-01T02:30:31.543Z,92.45
2018-02-01T02:32:59.199Z,92.59
2018-02-01T02:35:26.852Z,92.63
2018-02-01T02:37:54.478Z,92.66
2018-02-01T02:40:22.142Z,92.85
2018-02-01T02:42:49.784Z,92.95
2018-02-01T02:45:17.458Z,92.84
2018-02-01T02:47:45.152Z,92.75
2018-02-01T02:50:12.806Z,92.62
2018-02-01T02:52:40.537Z,92.57
2018-02-01T02:55:08.390Z,92.71
2018-02-01T02:57:36.067Z,92.76
2018-02-01T03:00:03.761Z,92.72
2018-02-01T03:02:31.443Z,92.57
2018-02-01T03:04:59.141Z,92.21
2018-02-01T03:07:26.775Z,92.06
2018-02-01T03:09:54.684Z,92.05
2018-02-01T03:12:22.855Z,92.15
2018-02-01T03:14:50.573Z,92.09
2018-02-01T03:17:18.218Z,92.17
2018-02-01T03:19:46.236Z,92.38
2018-02-01T03:22:14.231Z,92.32
2018-02-01T03:24:50.300Z,92.30
2018-02-01T03:27:18.776Z,92.04
2018-02-01T03:29:46.416Z,92.01
2018-02-01T03:32:14.006Z,91.90
2018-02-01T03:34:41.676Z,91.97
2018-02-01T03:37:09.295Z,91.90
2018-02-01T03:39:36.895Z,92.12
2018-02-01T03:42:04.492Z,92.19
2018-02-01T03:44:32.136Z,92.17
2018-02-01T03:46:59.766Z,92.02
2018-02-01T03:49:27.436Z,91.92
2018-02-01T03:51:55.049Z,91.80
2018-02-01T03:54:22.672Z,91.81
2018-02-01T03:56:50.670Z,91.85
2018-02-01T03:59:18.279Z,92.01
2018-02-01T04:01:46.246Z,92.09
2018-02-01T04:04:13.898Z,92.16
2018-02-01T04:06:42.033Z,92.29
2018-02-01T04:09:09.681Z,92.46
2018-02-01T04:11:37.318Z,92.48
2018-02-01T04:14:05.339Z,92.39
2018-02-01T04:16:32.966Z,92.47
2018-02-01T04:19:00.575Z,92.68
2018-02-01T04:21:28.212Z,92.77
2018-02-01T04:23:55.877Z,92.83
2018-02-01T04:26:23.517Z,92.80
2018-02-01T04:28:51.235Z,92.76
2018-02-01T04:31:18.856Z,92.65
2018-02-01T04:33:46.452Z,92.42
2018-02-01T04:36:14.129Z,92.42
2018-02-01T04:38:41.744Z,92.28
2018-02-01T04:41:09.370Z,92.34
2018-02-01T04:43:37.038Z,92.64
2018-02-01T04:46:04.969Z,92.91
2018-02-01T04:48:32.608Z,92.97
2018-02-01T04:51:00.314Z,93.20
2018-02-01T04:53:28.067Z,93.35
2018-02-01T04:55:55.712Z,93.48
2018-02-01T04:58:23.394Z,93.54
2018-02-01T05:00:51.043Z,93.40
2018-02-01T05:03:19.030Z,93.52
2018-02-01T05:05:46.657Z,93.55
2018-02-01T05:08:14.315Z,93.59
2018-02-01T05:10:41.974Z,93.48
2018-02-01T05:13:09.647Z,93.53
2018-02-01T05:15:37.296Z,93.38
2018-02-01T05:18:04.997Z,93.42
2018-02-01T05:20:32.657Z,93.46
2018-02-01T05:23:00.323Z,93.64
2018-02-01T05:25:27.997Z,93.76
2018-02-01T05:27:55.581Z,93.81
2018-02-01T05:30:23.252Z,93.75
2018-02-01T05:32:50.952Z,93.68
2018-02-01T05:35:18.547Z,93.78
2018-02-01T05:37:46.226Z,93.85
2018-02-01T05:40:13.944Z,93.58
2018-02-01T05:42:41.672Z,93.60
2018-02-01T05:45:09.704Z,93.77
2018-02-01T05:47:37.441Z,93.70
2018-02-01T05:50:05.087Z,93.62
2018-02-01T05:52:32.966Z,93.50
2018-02-01T05:55:00.569Z,93.41
2018-02-01T05:57:28.604Z,93.47
2018-02-01T06:00:00.118Z,93.50
2018-02-01T06:02:27.855Z,93.32
2018-02-01T06:04:55.497Z,93.11
2018-02-01T06:07:23.116Z,93.06
2018-02-01T06:09:50.790Z,92.96
2018-02-01T06:12:18.424Z,92.90
2018-02-01T06:14:46.308Z,92.78
2018-02-01T06:17:14.023Z,92.76
2018-02-01T06:19:42.060Z,92.74
2018-02-01T06:22:09.740Z,92.65
2018-02-01T06:24:37.514Z,92.60
2018-02-01T06:27:05.530Z,92.55
2018-02-01T06:29:33.245Z,92.32
2018-02-01T06:32:01.006Z,92.32
2018-02-01T06:34:29.118Z,92.16
2018-02-01T06:36:57.168Z,92.22
2018-02-01T06:39:24.813Z,92.07
2018-02-01T06:41:52.564Z,91.93
2018-02-01T06:44:20.732Z,92.05
2018-02-01T06:46:48.824Z,91.96
2018-02-01T06:49:16.462Z,92.06
2018-02-01T06:51:44.119Z,92.03
2018-02-01T06:54:11.887Z,91.85
2018-02-01T06:56:39.584Z,91.90
2018-02-01T06:59:07.373Z,91.94
2018-02-01T07:01:35.140Z,91.98
2018-02-01T07:04:03.068Z,92.11
2018-02-01T07:06:30.793Z,92.19
2018-02-01T07:08:58.758Z,92.20
2018-02-01T07:11:26.526Z,92.09
2018-02-01T07:13:54.298Z,92.13
2018-02-01T07:16:22.011Z,92.02
2018-02-01T07:18:49.695Z,91.92
2018-02-01T07:21:17.435Z,91.64
2018-02-01T07:23:45.170Z,91.66
2018-02-01T07:26:13.111Z,91.93
2018-02-01T07:28:40.819Z,92.37
2018-02-01T07:31:09.254Z,92.29
2018-02-01T07:33:37.037Z,92.03
2018-02-01T07:36:04.892Z,91.63
2018-02-01T07:38:32.682Z,92.08
2018-02-01T07:41:00.489Z,92.24
2018-02-01T07:43:28.322Z,92.52
2018-02-01T07:45:56.112Z,92.62
2018-02-01T07:48:23.889Z,92.67
2018-02-01T07:50:52.047Z,92.72
2018-02-01T07:53:19.820Z,92.69
2018-02-01T07:55:47.633Z,92.71
2018-02-01T07:58:15.859Z,92.54
2018-02-01T08:00:43.656Z,92.61
2018-02-01T08:03:11.418Z,92.51
2018-02-01T08:05:39.251Z,92.38
2018-02-01T08:08:07.011Z,92.42
2018-02-01T08:10:34.825Z,92.51
2018-02-01T08:13:02.566Z,92.30
2018-02-01T08:15:30.335Z,92.24
2018-02-01T08:17:58.074Z,92.28
2018-02-01T08:20:26.371Z,92.00
2018-02-01T08:22:54.220Z,92.22
2018-02-01T08:25:22.348Z,92.98
2018-02-01T08:27:50.243Z,92.68
2018-02-01T08:30:18.011Z,92.43
2018-02-01T08:32:45.879Z,92.55
2018-02-01T08:35:13.629Z,92.60
2018-02-01T08:37:41.344Z,92.73
2018-02-01T08:40:09.090Z,92.51
2018-02-01T08:42:36.864Z,92.50
2018-02-01T08:45:04.692Z,92.54
2018-02-01T08:47:32.490Z,92.45
2018-02-01T08:50:00.294Z,92.31
2018-02-01T08:52:28.061Z,92.20
2018-02-01T08:54:55.880Z,92.00
2018-02-01T08:57:23.743Z,92.06
2018-02-01T08:59:51.858Z,92.16
2018-02-01T09:02:26.556Z,91.97
2018-02-01T09:04:56.327Z,91.48
2018-02-01T09:07:24.427Z,92.05
2018-02-01T09:09:52.220Z,92.07
2018-02-01T09:12:19.966Z,92.73
2018-02-01T09:14:52.480Z,92.52
2018-02-01T09:17:20.301Z,92.16
2018-02-01T09:19:49.290Z,92.27
2018-02-01T09:22:18.043Z,93.05
2018-02-01T09:24:51.337Z,93.35
2018-02-01T09:27:19.458Z,93.63
2018-02-01T09:29:49.653Z,94.05
2018-02-01T09:32:23.627Z,93.68
2018-02-01T09:34:57.098Z,94.27
2018-02-01T09:37:25.143Z,94.16
2018-02-01T09:39:53.045Z,94.28
2018-02-01T09:42:20.800Z,93.82
2018-02-01T09:44:49.028Z,93.82
2018-02-01T09:47:16.771Z,94.36
2018-02-01T09:49:44.514Z,94.29
2018-02-01T09:52:12.672Z,93.69
2018-02-01T09:54:40.450Z,93.61
2018-02-01T09:57:08.135Z,93.35
2018-02-01T09:59:46.106Z,93.04
2018-02-01T10:02:13.862Z,93.48
2018-02-01T10:04:41.579Z,93.90
2018-02-01T10:07:09.398Z,94.19
2018-02-01T10:09:37.080Z,94.16
2018-02-01T10:12:04.870Z,94.72
2018-02-01T10:14:32.652Z,94.57
2018-02-01T10:17:00.460Z,94.52
2018-02-01T10:19:28.200Z,94.32
2018-02-01T10:21:55.960Z,94.43
2018-02-01T10:24:23.677Z,94.16
2018-02-01T10:26:51.412Z,94.23
2018-02-01T10:29:19.163Z,93.61
2018-02-01T10:31:46.970Z,94.00
2018-02-01T10:34:19.873Z,94.56
2018-02-01T10:36:47.831Z,94.14
2018-02-01T10:39:15.696Z,93.98
2018-02-01T10:41:43.554Z,93.65
2018-02-01T10:44:11.698Z,93.91
2018-02-01T10:49:24.520Z,94.23
2018-02-01T10:51:53.155Z,93.94
2018-02-01T10:54:20.950Z,93.34
2018-02-01T10:56:50.718Z,93.56
2018-02-01T10:59:22.652Z,92.83
2018-02-01T11:01:51.795Z,92.74
2018-02-01T11:04:19.622Z,92.97
2018-02-01T11:06:47.366Z,93.01
2018-02-01T11:09:16.368Z,92.82
2018-02-01T11:11:44.156Z,92.79
2018-02-01T11:14:12.206Z,92.61
2018-02-01T11:16:40.019Z,92.95
2018-02-01T11:19:08.159Z,92.60
2018-02-01T11:21:35.958Z,92.83
2018-02-01T11:24:04.115Z,92.61
2018-02-01T11:26:31.892Z,92.79
2018-02-01T11:28:59.653Z,93.34
2018-02-01T11:31:27.805Z,92.90
2018-02-01T11:33:55.569Z,93.04
2018-02-01T11:36:23.427Z,92.55
2018-02-01T11:38:51.229Z,92.88
2018-02-01T11:41:19.008Z,92.75
2018-02-01T11:43:55.262Z,92.45
2018-02-01T11:46:25.694Z,92.27
2018-02-01T11:48:56.834Z,92.19
2018-02-01T11:51:25.012Z,91.70
2018-02-01T11:53:58.282Z,91.77
2018-02-01T11:56:26.041Z,91.60
2018-02-01T11:58:55.104Z,91.45
2018-02-01T12:01:23.316Z,90.97
2018-02-01T12:03:51.034Z,91.48
2018-02-01T12:06:18.968Z,90.93
2018-02-01T12:08:46.872Z,90.87
2018-02-01T12:11:14.702Z,91.14
2018-02-01T12:13:49.192Z,91.15
2018-02-01T12:16:17.468Z,91.27
2018-02-01T12:18:46.454Z,89.88
2018-02-01T12:21:14.143Z,89.85
2018-02-01T12:23:41.906Z,89.83
2018-02-01T12:26:09.752Z,89.31
2018-02-01T12:28:37.512Z,90.39
2018-02-01T12:31:05.266Z,89.37
2018-02-01T12:33:35.092Z,89.89
2018-02-01T12:36:09.234Z,90.17
2018-02-01T12:38:43.329Z,90.88
2018-02-01T12:41:11.944Z,89.55
2018-02-01T12:43:43.086Z,90.23
2018-02-01T12:46:11.030Z,88.92
2018-02-01T12:48:38.803Z,88.98
2018-02-01T12:51:06.614Z,88.90
2018-02-01T12:53:34.327Z,88.95
2018-02-01T12:56:06.300Z,88.21
2018-02-01T12:58:34.122Z,89.27
2018-02-01T13:01:02.992Z,88.34
2018-02-01T13:03:30.966Z,88.61
2018-02-01T13:06:03.048Z,88.74
2018-02-01T13:08:30.850Z,88.40
2018-02-01T13:11:03.094Z,88.49
2018-02-01T13:13:32.393Z,88.56
2018-02-01T13:16:03.851Z,88.23
2018-02-01T13:18:32.829Z,87.68
2018-02-01T13:21:00.618Z,87.68
2018-02-01T13:23:28.410Z,87.95
2018-02-01T13:25:56.180Z,87.78
2018-02-01T13:28:25.081Z,88.24
2018-02-01T13:30:54.262Z,88.26
2018-02-01T13:33:29.003Z,87.88
2018-02-01T13:35:56.903Z,87.48
2018-02-01T13:38:25.490Z,88.04
2018-02-01T13:40:53.264Z,88.12
2018-02-01T13:43:20.989Z,88.57
2018-02-01T13:45:52.640Z,88.37
2018-02-01T13:48:20.411Z,87.60
2018-02-01T13:50:51.183Z,87.16
2018-02-01T13:53:19.358Z,87.71
2018-02-01T13:55:50.435Z,87.79
2018-02-01T13:58:18.309Z,87.50
2018-02-01T14:00:46.486Z,86.92
2018-02-01T14:03:22.764Z,88.04
2018-02-01T14:06:02.704Z,87.67
2018-02-01T14:08:35.165Z,88.12
2018-02-01T14:11:04.840Z,86.99
2018-02-01T14:13:59.918Z,87.20
2018-02-01T14:16:34.534Z,87.60
2018-02-01T14:19:03.658Z,86.96
2018-02-01T14:21:33.687Z,87.18
2018-02-01T14:24:02.179Z,87.24
2018-02-01T14:26:30.017Z,87.05
2018-02-01T14:28:58.154Z,86.28
2018-02-01T14:31:39.854Z,86.74
2018-02-01T14:34:49.109Z,86.67
2018-02-01T14:37:17.338Z,87.15
2018-02-01T14:39:45.267Z,86.75
2018-02-01T14:42:13.121Z,87.46
2018-02-01T14:44:42.533Z,87.10
2018-02-01T14:49:44.347Z,87.03
2018-02-01T14:52:13.569Z,87.97
2018-02-01T14:54:43.474Z,87.87
2018-02-01T14:57:18.485Z,87.83
2018-02-01T14:59:46.306Z,87.43
2018-02-01T15:02:17.041Z,87.53
2018-02-01T15:04:54.474Z,87.65
2018-02-01T16:03:55.531Z,89.73
2018-02-01T16:06:23.259Z,90.14
2018-02-01T16:08:50.947Z,90.53
2018-02-01T16:11:18.730Z,90.20
2018-02-01T16:13:49.511Z,90.44
2018-02-01T16:16:17.305Z,90.66
2018-02-01T16:18:45.008Z,90.74
2018-02-01T16:21:12.782Z,90.77
2018-02-01T16:23:40.532Z,90.83
2018-02-01T16:26:08.356Z,90.90
2018-02-01T16:28:36.103Z,90.83
2018-02-01T16:31:03.837Z,90.78
2018-02-01T16:33:31.569Z,90.73
2018-02-01T16:35:59.396Z,90.71
2018-02-01T16:38:27.100Z,90.87
2018-02-01T16:40:54.915Z,90.86
2018-02-01T16:43:22.803Z,91.12
2018-02-01T16:45:51.620Z,91.08
2018-02-01T16:48:19.790Z,90.90
2018-02-01T16:50:48.632Z,90.71
2018-02-01T16:53:16.372Z,90.54
2018-02-01T16:55:44.567Z,90.64
2018-02-01T16:58:12.855Z,90.29
2018-02-01T17:00:44.184Z,90.41
2018-02-01T17:03:13.131Z,90.60
2018-02-01T17:05:42.435Z,90.70
2018-02-01T17:08:10.200Z,90.64
2018-02-01T17:10:38.076Z,90.50
2018-02-01T17:13:08.049Z,90.59
2018-02-01T17:15:35.857Z,90.62
2018-02-01T17:18:03.749Z,90.60
2018-02-01T17:20:31.895Z,90.38
2018-02-01T17:23:00.799Z,90.48
2018-02-01T17:25:28.719Z,90.80
2018-02-01T17:27:57.770Z,90.89
2018-02-01T17:30:25.949Z,91.31
2018-02-01T17:32:53.666Z,91.52
2018-02-01T17:35:21.520Z,91.75
2018-02-01T17:37:49.324Z,92.19
2018-02-01T17:40:17.061Z,92.21
2018-02-01T17:42:44.933Z,91.87
2018-02-01T17:45:12.682Z,92.11
2018-02-01T17:47:40.459Z,92.16
2018-02-01T17:50:08.205Z,92.00
2018-02-01T17:52:35.975Z,92.10
2018-02-01T17:55:03.785Z,92.32
2018-02-01T17:57:31.623Z,92.41
2018-02-01T17:59:59.934Z,92.70
2018-02-01T18:02:27.677Z,92.59
2018-02-01T18:04:55.383Z,92.59
2018-02-01T18:07:23.212Z,92.95
2018-02-01T18:09:50.978Z,92.64
2018-02-01T18:12:18.714Z,92.71
2018-02-01T18:14:46.601Z,92.85
2018-02-01T18:17:14.432Z,92.99
2018-02-01T18:19:42.186Z,92.96
2018-02-01T18:22:09.915Z,92.94
2018-02-01T18:24:37.634Z,92.74
2018-02-01T18:27:05.404Z,92.61
2018-02-01T18:29:33.616Z,92.49
2018-02-01T18:32:01.355Z,92.43
2018-02-01T18:34:29.114Z,92.24
2018-02-01T18:36:56.891Z,92.40
2018-02-01T18:39:24.616Z,92.43
2018-02-01T18:41:52.748Z,92.46
2018-02-01T18:44:20.612Z,92.34
2018-02-01T18:46:48.451Z,92.24
2018-02-01T18:49:16.189Z,92.31
2018-02-01T18:51:44.412Z,92.53
2018-02-01T18:54:12.150Z,92.61
2018-02-01T18:56:39.943Z,92.70
2018-02-01T18:59:07.700Z,92.72
2018-02-01T19:01:35.502Z,92.57
2018-02-01T19:04:03.276Z,92.40
2018-02-01T19:06:31.064Z,92.18
2018-02-01T19:08:59.952Z,92.03
2018-02-01T19:11:27.712Z,91.97
2018-02-01T19:13:56.205Z,91.97
2018-02-01T19:16:24.021Z,91.93
2018-02-01T19:18:54.182Z,91.92
2018-02-01T19:21:21.915Z,91.92
2018-02-01T19:23:49.662Z,92.08
2018-02-01T19:26:17.375Z,92.33
2018-02-01T19:28:45.228Z,92.09
2018-02-01T19:31:13.040Z,91.82
2018-02-01T19:33:42.440Z,91.75
2018-02-01T19:36:22.756Z,91.63
2018-02-01T19:38:51.394Z,91.43
2018-02-01T19:41:24.293Z,91.56
2018-02-01T19:43:58.522Z,91.42
2018-02-01T19:46:26.934Z,91.53
2018-02-01T19:52:06.670Z,91.35
2018-02-01T19:54:38.706Z,91.41
2018-02-01T19:57:08.778Z,91.69
2018-02-01T19:59:36.834Z,91.68
2018-02-01T20:02:06.174Z,91.64
2018-02-01T20:04:35.442Z,91.89
2018-02-01T20:07:03.951Z,91.69
2018-02-01T20:09:34.807Z,91.39
2018-02-01T20:12:07.994Z,91.53
2018-02-01T20:14:39.262Z,91.49
2018-02-01T20:17:08.737Z,91.53
2018-02-01T20:19:45.574Z,91.65
2018-02-01T20:22:28.395Z,91.26
2018-02-01T20:24:58.159Z,91.26
2018-02-01T20:27:28.134Z,91.01
2018-02-01T20:30:00.496Z,91.05
2018-02-01T20:32:29.763Z,91.26
2018-02-01T20:35:00.853Z,91.47
2018-02-01T20:37:34.890Z,91.50
2018-02-01T20:40:31.928Z,91.32
2018-02-01T20:43:05.736Z,91.34
2018-02-01T20:45:37.187Z,91.61
2018-02-01T20:48:12.505Z,91.74
2018-02-01T20:50:46.829Z,91.63
2018-02-01T20:53:24.177Z,91.62
2018-02-01T20:55:56.100Z,91.73
2018-02-01T20:58:23.987Z,91.93
2018-02-01T21:00:51.721Z,92.12
2018-02-01T21:03:22.540Z,92.20
2018-02-01T21:05:50.417Z,92.35
2018-02-01T21:08:25.986Z,92.57
2018-02-01T21:10:53.852Z,92.73
2018-02-01T21:13:21.644Z,93.03
2018-02-01T21:15:51.372Z,93.24
2018-02-01T21:18:30.182Z,92.92
2018-02-01T21:20:57.994Z,92.68
2018-02-01T21:23:32.227Z,92.52
2018-02-01T21:26:00.119Z,92.56
2018-02-01T21:28:39.661Z,92.42
2018-02-01T21:31:09.719Z,92.52
2018-02-01T21:33:44.467Z,92.80
2018-02-01T21:39:19.157Z,92.98
2018-02-01T21:41:47.993Z,93.21
2018-02-01T21:44:15.938Z,93.43
2018-02-01T21:46:54.879Z,93.39
2018-02-01T21:52:00.658Z,93.43
2018-02-01T21:54:32.543Z,93.24
2018-02-01T22:03:06.379Z,93.09
2018-02-01T22:05:34.904Z,93.09
2018-02-01T22:08:02.657Z,93.12
2018-02-01T22:10:35.998Z,93.20
2018-02-01T22:13:03.777Z,93.21
2018-02-01T22:15:31.949Z,93.38
2018-02-01T22:17:59.707Z,93.39
2018-02-01T22:20:27.833Z,92.87
2018-02-01T22:22:55.781Z,93.18
2018-02-01T22:25:23.626Z,93.10
2018-02-01T22:27:51.383Z,93.07
2018-02-01T22:30:19.140Z,92.84
2018-02-01T22:32:46.900Z,92.76
2018-02-01T22:35:14.897Z,93.03
2018-02-01T22:37:42.597Z,92.90
2018-02-01T22:40:10.398Z,93.03
2018-02-01T22:42:39.358Z,92.98
2018-02-01T22:45:07.126Z,92.70
2018-02-01T22:47:34.937Z,92.83
2018-02-01T22:50:02.824Z,92.98
2018-02-01T22:52:30.609Z,92.96
2018-02-01T22:54:59.633Z,93.13
2018-02-01T22:57:27.414Z,93.30
2018-02-01T22:59:55.132Z,92.97
2018-02-01T23:02:24.060Z,93.03
2018-02-01T23:04:52.245Z,93.10
2018-02-01T23:07:20.036Z,92.83
2018-02-01T23:09:48.477Z,92.51
2018-02-01T23:14:54.019Z,92.19
2018-02-01T23:17:21.826Z,92.33
2018-02-01T23:19:50.936Z,92.32
2018-02-01T23:22:18.654Z,92.33
2018-02-01T23:24:46.419Z,92.23
2018-02-01T23:27:14.202Z,92.15
2018-02-01T23:29:42.053Z,92.09
2018-02-01T23:32:09.965Z,92.19
2018-02-01T23:34:37.836Z,92.31
2018-02-01T23:37:05.620Z,92.44
2018-02-01T23:39:33.846Z,92.36
2018-02-01T23:42:01.557Z,92.56
2018-02-01T23:44:30.255Z,92.66
2018-02-01T23:46:59.425Z,92.49
2018-02-01T23:49:27.730Z,92.58
2018-02-01T23:51:56.037Z,93.01
2018-02-01T23:54:24.384Z,92.85
2018-02-01T23:56:52.228Z,93.06
2018-02-01T23:59:19.980Z,93.06
